sensor_id;sensor_type;location;lat;lon;timestamp;P1;durP1;ratioP1;P2;durP2;ratioP2
45049;SDS011;61798;48.048;-1.928;2023-10-08T00:00:39;5.45;;;2.67;;
45049;SDS011;61798;48.048;-1.928;2023-10-08T00:03:09;5.38;;;2.70;;
45049;SDS011;61798;48.048;-1.928;2023-10-08T00:05:16;7.88;;;2.92;;
45049;SDS011;61798;48.048;-1.928;2023-10-08T00:07:23;6.38;;;3.10;;
45049;SDS011;61798;48.048;-1.928;2023-10-08T00:09:31;5.45;;;2.60;;
45049;SDS011;61798;48.048;-1.928;2023-10-08T00:11:44;5.82;;;3.15;;
45049;SDS011;61798;48.048;-1.928;2023-10-08T00:13:58;7.00;;;2.67;;
45049;SDS011;61798;48.048;-1.928;2023-10-08T00:16:08;6.65;;;3.15;;
45049;SDS011;61798;48.048;-1.928;2023-10-08T00:18:24;5.88;;;3.10;;
45049;SDS011;61798;48.048;-1.928;2023-10-08T00:20:33;5.47;;;2.83;;
45049;SDS011;61798;48.048;-1.928;2023-10-08T00:23:11;6.75;;;3.10;;
45049;SDS011;61798;48.048;-1.928;2023-10-08T00:25:19;9.60;;;3.13;;
45049;SDS011;61798;48.048;-1.928;2023-10-08T00:27:26;8.40;;;3.17;;
45049;SDS011;61798;48.048;-1.928;2023-10-08T00:29:33;8.07;;;2.70;;
45049;SDS011;61798;48.048;-1.928;2023-10-08T00:31:40;6.05;;;3.17;;
45049;SDS011;61798;48.048;-1.928;2023-10-08T00:33:48;6.68;;;3.20;;
45049;SDS011;61798;48.048;-1.928;2023-10-08T00:35:56;5.88;;;2.85;;
45049;SDS011;61798;48.048;-1.928;2023-10-08T00:38:01;6.43;;;2.90;;
45049;SDS011;61798;48.048;-1.928;2023-10-08T00:40:15;8.55;;;3.38;;
45049;SDS011;61798;48.048;-1.928;2023-10-08T00:42:26;5.60;;;3.20;;
45049;SDS011;61798;48.048;-1.928;2023-10-08T00:44:36;4.90;;;3.30;;
45049;SDS011;61798;48.048;-1.928;2023-10-08T00:47:12;6.95;;;3.28;;
45049;SDS011;61798;48.048;-1.928;2023-10-08T00:49:21;5.60;;;3.05;;
45049;SDS011;61798;48.048;-1.928;2023-10-08T00:51:56;12.43;;;3.72;;
45049;SDS011;61798;48.048;-1.928;2023-10-08T00:54:27;10.15;;;3.35;;
45049;SDS011;61798;48.048;-1.928;2023-10-08T00:56:57;5.60;;;3.20;;
45049;SDS011;61798;48.048;-1.928;2023-10-08T00:59:04;7.78;;;3.78;;
45049;SDS011;61798;48.048;-1.928;2023-10-08T01:01:13;8.70;;;3.35;;
45049;SDS011;61798;48.048;-1.928;2023-10-08T01:03:23;11.85;;;3.83;;
45049;SDS011;61798;48.048;-1.928;2023-10-08T01:05:33;6.35;;;3.60;;
45049;SDS011;61798;48.048;-1.928;2023-10-08T01:07:53;6.25;;;3.33;;
45049;SDS011;61798;48.048;-1.928;2023-10-08T01:10:03;7.15;;;3.50;;
45049;SDS011;61798;48.048;-1.928;2023-10-08T01:12:21;6.38;;;3.42;;
45049;SDS011;61798;48.048;-1.928;2023-10-08T01:14:33;6.68;;;3.42;;
45049;SDS011;61798;48.048;-1.928;2023-10-08T01:16:41;11.23;;;3.80;;
45049;SDS011;61798;48.048;-1.928;2023-10-08T01:18:53;7.93;;;3.80;;
45049;SDS011;61798;48.048;-1.928;2023-10-08T01:21:01;5.35;;;3.25;;
45049;SDS011;61798;48.048;-1.928;2023-10-08T01:23:19;7.22;;;3.75;;
45049;SDS011;61798;48.048;-1.928;2023-10-08T01:25:34;9.38;;;3.88;;
45049;SDS011;61798;48.048;-1.928;2023-10-08T01:27:41;8.48;;;4.70;;
45049;SDS011;61798;48.048;-1.928;2023-10-08T01:29:51;8.77;;;4.22;;
45049;SDS011;61798;48.048;-1.928;2023-10-08T01:31:58;8.00;;;3.63;;
45049;SDS011;61798;48.048;-1.928;2023-10-08T01:34:08;9.07;;;4.40;;
45049;SDS011;61798;48.048;-1.928;2023-10-08T01:36:21;8.77;;;4.13;;
45049;SDS011;61798;48.048;-1.928;2023-10-08T01:38:30;10.57;;;4.32;;
45049;SDS011;61798;48.048;-1.928;2023-10-08T01:40:40;6.22;;;3.30;;
45049;SDS011;61798;48.048;-1.928;2023-10-08T01:42:51;7.05;;;3.80;;
45049;SDS011;61798;48.048;-1.928;2023-10-08T01:44:58;7.95;;;3.00;;
45049;SDS011;61798;48.048;-1.928;2023-10-08T01:47:05;8.00;;;3.13;;
45049;SDS011;61798;48.048;-1.928;2023-10-08T01:49:13;12.70;;;4.70;;
45049;SDS011;61798;48.048;-1.928;2023-10-08T01:51:21;6.88;;;4.00;;
45049;SDS011;61798;48.048;-1.928;2023-10-08T01:53:35;6.03;;;3.50;;
45049;SDS011;61798;48.048;-1.928;2023-10-08T01:55:43;8.23;;;3.45;;
45049;SDS011;61798;48.048;-1.928;2023-10-08T01:57:57;5.82;;;3.60;;
45049;SDS011;61798;48.048;-1.928;2023-10-08T02:00:05;6.82;;;2.95;;
45049;SDS011;61798;48.048;-1.928;2023-10-08T02:02:16;8.02;;;3.15;;
45049;SDS011;61798;48.048;-1.928;2023-10-08T02:04:26;6.15;;;2.90;;
45049;SDS011;61798;48.048;-1.928;2023-10-08T02:06:35;6.35;;;3.10;;
45049;SDS011;61798;48.048;-1.928;2023-10-08T02:08:42;6.75;;;3.50;;
45049;SDS011;61798;48.048;-1.928;2023-10-08T02:10:49;6.53;;;3.45;;
45049;SDS011;61798;48.048;-1.928;2023-10-08T02:12:57;6.22;;;3.33;;
45049;SDS011;61798;48.048;-1.928;2023-10-08T02:15:04;9.23;;;3.22;;
45049;SDS011;61798;48.048;-1.928;2023-10-08T02:17:13;5.75;;;3.00;;
45049;SDS011;61798;48.048;-1.928;2023-10-08T02:19:19;6.43;;;3.42;;
45049;SDS011;61798;48.048;-1.928;2023-10-08T02:21:38;6.78;;;3.10;;
45049;SDS011;61798;48.048;-1.928;2023-10-08T02:23:55;4.82;;;3.13;;
45049;SDS011;61798;48.048;-1.928;2023-10-08T02:26:03;6.53;;;2.85;;
45049;SDS011;61798;48.048;-1.928;2023-10-08T02:28:12;9.93;;;3.78;;
45049;SDS011;61798;48.048;-1.928;2023-10-08T02:30:22;9.25;;;3.28;;
45049;SDS011;61798;48.048;-1.928;2023-10-08T02:32:29;5.15;;;3.05;;
45049;SDS011;61798;48.048;-1.928;2023-10-08T02:34:37;6.53;;;3.20;;
45049;SDS011;61798;48.048;-1.928;2023-10-08T02:36:44;6.90;;;3.10;;
45049;SDS011;61798;48.048;-1.928;2023-10-08T02:38:52;6.30;;;3.50;;
45049;SDS011;61798;48.048;-1.928;2023-10-08T02:41:04;5.95;;;3.22;;
45049;SDS011;61798;48.048;-1.928;2023-10-08T02:43:32;4.82;;;3.10;;
45049;SDS011;61798;48.048;-1.928;2023-10-08T02:45:44;6.82;;;2.78;;
45049;SDS011;61798;48.048;-1.928;2023-10-08T02:48:10;5.30;;;2.88;;
45049;SDS011;61798;48.048;-1.928;2023-10-08T02:50:24;6.25;;;3.38;;
45049;SDS011;61798;48.048;-1.928;2023-10-08T02:52:33;6.75;;;3.00;;
45049;SDS011;61798;48.048;-1.928;2023-10-08T02:54:40;7.25;;;3.33;;
45049;SDS011;61798;48.048;-1.928;2023-10-08T02:56:51;6.38;;;3.05;;
45049;SDS011;61798;48.048;-1.928;2023-10-08T02:59:03;6.35;;;3.35;;
45049;SDS011;61798;48.048;-1.928;2023-10-08T03:01:16;5.10;;;3.05;;
45049;SDS011;61798;48.048;-1.928;2023-10-08T03:03:23;6.68;;;3.45;;
45049;SDS011;61798;48.048;-1.928;2023-10-08T03:05:31;6.72;;;2.95;;
45049;SDS011;61798;48.048;-1.928;2023-10-08T03:07:44;4.78;;;2.55;;
45049;SDS011;61798;48.048;-1.928;2023-10-08T03:09:52;5.45;;;3.35;;
45049;SDS011;61798;48.048;-1.928;2023-10-08T03:12:10;5.47;;;3.42;;
45049;SDS011;61798;48.048;-1.928;2023-10-08T03:14:18;6.35;;;3.28;;
45049;SDS011;61798;48.048;-1.928;2023-10-08T03:16:29;7.28;;;3.42;;
45049;SDS011;61798;48.048;-1.928;2023-10-08T03:18:41;7.78;;;3.10;;
45049;SDS011;61798;48.048;-1.928;2023-10-08T03:20:50;6.00;;;2.70;;
45049;SDS011;61798;48.048;-1.928;2023-10-08T03:22:57;7.85;;;3.58;;
45049;SDS011;61798;48.048;-1.928;2023-10-08T03:25:04;6.72;;;2.85;;
45049;SDS011;61798;48.048;-1.928;2023-10-08T03:27:23;12.75;;;2.75;;
45049;SDS011;61798;48.048;-1.928;2023-10-08T03:29:34;12.40;;;4.05;;
45049;SDS011;61798;48.048;-1.928;2023-10-08T03:31:47;7.88;;;3.00;;
45049;SDS011;61798;48.048;-1.928;2023-10-08T03:33:55;5.65;;;3.30;;
45049;SDS011;61798;48.048;-1.928;2023-10-08T03:36:03;8.18;;;3.70;;
45049;SDS011;61798;48.048;-1.928;2023-10-08T03:38:29;6.57;;;3.28;;
45049;SDS011;61798;48.048;-1.928;2023-10-08T03:40:51;6.13;;;3.35;;
45049;SDS011;61798;48.048;-1.928;2023-10-08T03:43:04;4.28;;;2.95;;
45049;SDS011;61798;48.048;-1.928;2023-10-08T03:45:22;4.90;;;2.83;;
45049;SDS011;61798;48.048;-1.928;2023-10-08T03:47:48;4.80;;;2.85;;
45049;SDS011;61798;48.048;-1.928;2023-10-08T03:50:11;7.78;;;3.30;;
45049;SDS011;61798;48.048;-1.928;2023-10-08T03:52:23;9.05;;;3.53;;
45049;SDS011;61798;48.048;-1.928;2023-10-08T03:54:33;7.72;;;3.60;;
45049;SDS011;61798;48.048;-1.928;2023-10-08T03:56:50;6.38;;;3.42;;
45049;SDS011;61798;48.048;-1.928;2023-10-08T03:58:58;7.45;;;3.58;;
45049;SDS011;61798;48.048;-1.928;2023-10-08T04:01:28;7.35;;;3.40;;
45049;SDS011;61798;48.048;-1.928;2023-10-08T04:03:39;7.22;;;3.55;;
45049;SDS011;61798;48.048;-1.928;2023-10-08T04:06:04;7.80;;;3.67;;
45049;SDS011;61798;48.048;-1.928;2023-10-08T04:08:32;6.60;;;3.45;;
45049;SDS011;61798;48.048;-1.928;2023-10-08T04:11:13;7.93;;;3.40;;
45049;SDS011;61798;48.048;-1.928;2023-10-08T04:13:37;8.65;;;4.10;;
45049;SDS011;61798;48.048;-1.928;2023-10-08T04:15:54;5.75;;;3.60;;
45049;SDS011;61798;48.048;-1.928;2023-10-08T04:18:01;7.35;;;3.60;;
45049;SDS011;61798;48.048;-1.928;2023-10-08T04:20:14;6.55;;;3.15;;
45049;SDS011;61798;48.048;-1.928;2023-10-08T04:22:42;6.72;;;3.65;;
45049;SDS011;61798;48.048;-1.928;2023-10-08T04:24:50;6.53;;;3.63;;
45049;SDS011;61798;48.048;-1.928;2023-10-08T04:26:59;8.38;;;4.10;;
45049;SDS011;61798;48.048;-1.928;2023-10-08T04:29:08;7.13;;;3.78;;
45049;SDS011;61798;48.048;-1.928;2023-10-08T04:31:15;6.13;;;3.70;;
45049;SDS011;61798;48.048;-1.928;2023-10-08T04:33:23;8.50;;;4.43;;
45049;SDS011;61798;48.048;-1.928;2023-10-08T04:35:30;9.98;;;4.30;;
45049;SDS011;61798;48.048;-1.928;2023-10-08T04:37:37;8.50;;;4.43;;
45049;SDS011;61798;48.048;-1.928;2023-10-08T04:39:47;6.30;;;3.60;;
45049;SDS011;61798;48.048;-1.928;2023-10-08T04:42:02;8.45;;;3.92;;
45049;SDS011;61798;48.048;-1.928;2023-10-08T04:44:13;7.90;;;3.90;;
45049;SDS011;61798;48.048;-1.928;2023-10-08T04:46:44;7.35;;;4.20;;
45049;SDS011;61798;48.048;-1.928;2023-10-08T04:49:14;8.48;;;4.15;;
45049;SDS011;61798;48.048;-1.928;2023-10-08T04:51:39;7.63;;;3.60;;
45049;SDS011;61798;48.048;-1.928;2023-10-08T04:53:50;8.25;;;4.28;;
45049;SDS011;61798;48.048;-1.928;2023-10-08T04:56:01;6.85;;;3.67;;
45049;SDS011;61798;48.048;-1.928;2023-10-08T04:58:29;6.57;;;4.00;;
45049;SDS011;61798;48.048;-1.928;2023-10-08T05:00:56;7.75;;;4.35;;
45049;SDS011;61798;48.048;-1.928;2023-10-08T05:03:07;8.27;;;4.40;;
45049;SDS011;61798;48.048;-1.928;2023-10-08T05:05:43;9.15;;;4.65;;
45049;SDS011;61798;48.048;-1.928;2023-10-08T05:08:25;7.97;;;4.90;;
45049;SDS011;61798;48.048;-1.928;2023-10-08T05:10:57;7.93;;;4.80;;
45049;SDS011;61798;48.048;-1.928;2023-10-08T05:13:09;8.77;;;4.60;;
45049;SDS011;61798;48.048;-1.928;2023-10-08T05:15:16;9.48;;;5.00;;
45049;SDS011;61798;48.048;-1.928;2023-10-08T05:17:23;9.50;;;4.97;;
45049;SDS011;61798;48.048;-1.928;2023-10-08T05:19:50;8.02;;;4.25;;
45049;SDS011;61798;48.048;-1.928;2023-10-08T05:22:17;9.95;;;5.18;;
45049;SDS011;61798;48.048;-1.928;2023-10-08T05:24:48;7.93;;;4.53;;
45049;SDS011;61798;48.048;-1.928;2023-10-08T05:27:15;8.45;;;4.57;;
45049;SDS011;61798;48.048;-1.928;2023-10-08T05:29:42;9.32;;;4.70;;
45049;SDS011;61798;48.048;-1.928;2023-10-08T05:32:08;9.15;;;4.63;;
45049;SDS011;61798;48.048;-1.928;2023-10-08T05:34:34;10.43;;;4.78;;
45049;SDS011;61798;48.048;-1.928;2023-10-08T05:37:01;10.77;;;5.05;;
45049;SDS011;61798;48.048;-1.928;2023-10-08T05:39:40;7.90;;;4.22;;
45049;SDS011;61798;48.048;-1.928;2023-10-08T05:41:49;10.65;;;4.90;;
45049;SDS011;61798;48.048;-1.928;2023-10-08T05:44:05;11.48;;;5.07;;
45049;SDS011;61798;48.048;-1.928;2023-10-08T05:46:43;8.57;;;5.05;;
45049;SDS011;61798;48.048;-1.928;2023-10-08T05:49:30;8.88;;;4.90;;
45049;SDS011;61798;48.048;-1.928;2023-10-08T05:51:38;9.13;;;4.88;;
45049;SDS011;61798;48.048;-1.928;2023-10-08T05:53:58;7.78;;;4.38;;
45049;SDS011;61798;48.048;-1.928;2023-10-08T05:56:05;8.98;;;4.65;;
45049;SDS011;61798;48.048;-1.928;2023-10-08T05:58:32;11.40;;;4.20;;
45049;SDS011;61798;48.048;-1.928;2023-10-08T06:00:54;7.23;;;4.10;;
45049;SDS011;61798;48.048;-1.928;2023-10-08T06:03:38;7.07;;;4.38;;
45049;SDS011;61798;48.048;-1.928;2023-10-08T06:06:12;7.30;;;4.45;;
45049;SDS011;61798;48.048;-1.928;2023-10-08T06:08:21;9.50;;;4.47;;
45049;SDS011;61798;48.048;-1.928;2023-10-08T06:10:46;8.23;;;4.28;;
45049;SDS011;61798;48.048;-1.928;2023-10-08T06:13:09;7.55;;;4.22;;
45049;SDS011;61798;48.048;-1.928;2023-10-08T06:15:42;11.13;;;4.85;;
45049;SDS011;61798;48.048;-1.928;2023-10-08T06:17:54;8.85;;;5.07;;
45049;SDS011;61798;48.048;-1.928;2023-10-08T06:20:11;9.48;;;4.47;;
45049;SDS011;61798;48.048;-1.928;2023-10-08T06:22:23;7.57;;;4.55;;
45049;SDS011;61798;48.048;-1.928;2023-10-08T06:24:33;8.57;;;4.63;;
45049;SDS011;61798;48.048;-1.928;2023-10-08T06:26:40;9.90;;;4.28;;
45049;SDS011;61798;48.048;-1.928;2023-10-08T06:28:48;9.45;;;4.18;;
45049;SDS011;61798;48.048;-1.928;2023-10-08T06:30:55;7.07;;;3.75;;
45049;SDS011;61798;48.048;-1.928;2023-10-08T06:33:04;10.65;;;5.05;;
45049;SDS011;61798;48.048;-1.928;2023-10-08T06:35:11;9.00;;;4.10;;
45049;SDS011;61798;48.048;-1.928;2023-10-08T06:37:25;8.82;;;4.22;;
45049;SDS011;61798;48.048;-1.928;2023-10-08T06:39:32;10.35;;;4.63;;
45049;SDS011;61798;48.048;-1.928;2023-10-08T06:41:56;11.85;;;4.28;;
45049;SDS011;61798;48.048;-1.928;2023-10-08T06:44:05;7.88;;;4.35;;
45049;SDS011;61798;48.048;-1.928;2023-10-08T06:46:13;9.60;;;4.78;;
45049;SDS011;61798;48.048;-1.928;2023-10-08T06:48:21;9.43;;;4.18;;
45049;SDS011;61798;48.048;-1.928;2023-10-08T06:50:29;7.70;;;3.92;;
45049;SDS011;61798;48.048;-1.928;2023-10-08T06:52:37;11.50;;;4.93;;
45049;SDS011;61798;48.048;-1.928;2023-10-08T06:54:43;9.25;;;4.55;;
45049;SDS011;61798;48.048;-1.928;2023-10-08T06:56:49;8.38;;;4.50;;
45049;SDS011;61798;48.048;-1.928;2023-10-08T06:58:58;6.25;;;4.10;;
45049;SDS011;61798;48.048;-1.928;2023-10-08T07:01:04;9.55;;;4.75;;
45049;SDS011;61798;48.048;-1.928;2023-10-08T07:03:10;11.95;;;4.65;;
45049;SDS011;61798;48.048;-1.928;2023-10-08T07:05:17;8.60;;;4.47;;
45049;SDS011;61798;48.048;-1.928;2023-10-08T07:07:24;6.93;;;4.03;;
45049;SDS011;61798;48.048;-1.928;2023-10-08T07:09:34;10.18;;;4.97;;
45049;SDS011;61798;48.048;-1.928;2023-10-08T07:11:41;6.95;;;4.78;;
45049;SDS011;61798;48.048;-1.928;2023-10-08T07:13:51;8.02;;;4.97;;
45049;SDS011;61798;48.048;-1.928;2023-10-08T07:15:57;9.63;;;5.65;;
45049;SDS011;61798;48.048;-1.928;2023-10-08T07:18:03;6.68;;;4.05;;
45049;SDS011;61798;48.048;-1.928;2023-10-08T07:20:15;13.40;;;7.18;;
45049;SDS011;61798;48.048;-1.928;2023-10-08T07:22:27;9.05;;;5.47;;
45049;SDS011;61798;48.048;-1.928;2023-10-08T07:24:34;9.73;;;5.72;;
45049;SDS011;61798;48.048;-1.928;2023-10-08T07:26:40;12.48;;;7.13;;
45049;SDS011;61798;48.048;-1.928;2023-10-08T07:28:51;10.32;;;5.93;;
45049;SDS011;61798;48.048;-1.928;2023-10-08T07:30:58;12.35;;;6.28;;
45049;SDS011;61798;48.048;-1.928;2023-10-08T07:33:04;11.48;;;6.32;;
45049;SDS011;61798;48.048;-1.928;2023-10-08T07:35:10;12.18;;;6.30;;
45049;SDS011;61798;48.048;-1.928;2023-10-08T07:37:28;8.45;;;4.85;;
45049;SDS011;61798;48.048;-1.928;2023-10-08T07:39:33;10.50;;;5.25;;
45049;SDS011;61798;48.048;-1.928;2023-10-08T07:41:50;11.85;;;5.45;;
45049;SDS011;61798;48.048;-1.928;2023-10-08T07:43:59;10.60;;;5.55;;
45049;SDS011;61798;48.048;-1.928;2023-10-08T07:46:05;11.27;;;5.93;;
45049;SDS011;61798;48.048;-1.928;2023-10-08T07:48:11;12.98;;;6.05;;
45049;SDS011;61798;48.048;-1.928;2023-10-08T07:50:19;10.75;;;6.05;;
45049;SDS011;61798;48.048;-1.928;2023-10-08T07:52:25;13.85;;;5.90;;
45049;SDS011;61798;48.048;-1.928;2023-10-08T07:54:31;9.68;;;5.47;;
45049;SDS011;61798;48.048;-1.928;2023-10-08T07:56:40;8.80;;;5.50;;
45049;SDS011;61798;48.048;-1.928;2023-10-08T07:58:48;11.70;;;4.68;;
45049;SDS011;61798;48.048;-1.928;2023-10-08T08:00:53;9.02;;;5.13;;
45049;SDS011;61798;48.048;-1.928;2023-10-08T08:02:59;9.38;;;4.60;;
45049;SDS011;61798;48.048;-1.928;2023-10-08T08:05:10;6.40;;;4.45;;
45049;SDS011;61798;48.048;-1.928;2023-10-08T08:07:22;11.90;;;5.18;;
45049;SDS011;61798;48.048;-1.928;2023-10-08T08:09:30;9.38;;;5.05;;
45049;SDS011;61798;48.048;-1.928;2023-10-08T08:11:40;14.98;;;5.85;;
45049;SDS011;61798;48.048;-1.928;2023-10-08T08:13:47;11.98;;;5.45;;
45049;SDS011;61798;48.048;-1.928;2023-10-08T08:15:53;14.07;;;7.95;;
45049;SDS011;61798;48.048;-1.928;2023-10-08T08:18:03;8.55;;;5.22;;
45049;SDS011;61798;48.048;-1.928;2023-10-08T08:20:11;7.93;;;5.10;;
45049;SDS011;61798;48.048;-1.928;2023-10-08T08:22:23;7.53;;;4.47;;
45049;SDS011;61798;48.048;-1.928;2023-10-08T08:24:36;10.10;;;5.05;;
45049;SDS011;61798;48.048;-1.928;2023-10-08T08:26:42;7.80;;;4.88;;
45049;SDS011;61798;48.048;-1.928;2023-10-08T08:29:06;8.13;;;4.60;;
45049;SDS011;61798;48.048;-1.928;2023-10-08T08:31:14;9.65;;;4.35;;
45049;SDS011;61798;48.048;-1.928;2023-10-08T08:33:20;7.68;;;4.78;;
45049;SDS011;61798;48.048;-1.928;2023-10-08T08:35:29;6.88;;;4.30;;
45049;SDS011;61798;48.048;-1.928;2023-10-08T08:37:37;9.20;;;4.68;;
45049;SDS011;61798;48.048;-1.928;2023-10-08T08:39:46;8.18;;;4.70;;
45049;SDS011;61798;48.048;-1.928;2023-10-08T08:41:52;9.00;;;4.40;;
45049;SDS011;61798;48.048;-1.928;2023-10-08T08:44:00;11.60;;;4.85;;
45049;SDS011;61798;48.048;-1.928;2023-10-08T08:46:12;9.07;;;5.00;;
45049;SDS011;61798;48.048;-1.928;2023-10-08T08:48:18;7.50;;;3.95;;
45049;SDS011;61798;48.048;-1.928;2023-10-08T08:50:24;8.93;;;4.50;;
45049;SDS011;61798;48.048;-1.928;2023-10-08T08:52:32;9.50;;;4.45;;
45049;SDS011;61798;48.048;-1.928;2023-10-08T08:54:39;8.88;;;4.80;;
45049;SDS011;61798;48.048;-1.928;2023-10-08T08:56:47;7.72;;;4.20;;
45049;SDS011;61798;48.048;-1.928;2023-10-08T08:58:54;10.20;;;4.22;;
45049;SDS011;61798;48.048;-1.928;2023-10-08T09:01:01;9.00;;;4.68;;
45049;SDS011;61798;48.048;-1.928;2023-10-08T09:03:08;14.48;;;4.82;;
45049;SDS011;61798;48.048;-1.928;2023-10-08T09:05:18;10.27;;;4.07;;
45049;SDS011;61798;48.048;-1.928;2023-10-08T09:07:30;28.90;;;5.18;;
45049;SDS011;61798;48.048;-1.928;2023-10-08T09:09:36;64.22;;;6.47;;
45049;SDS011;61798;48.048;-1.928;2023-10-08T09:11:48;7.97;;;3.85;;
45049;SDS011;61798;48.048;-1.928;2023-10-08T09:14:00;9.18;;;4.38;;
45049;SDS011;61798;48.048;-1.928;2023-10-08T09:16:12;11.88;;;4.90;;
45049;SDS011;61798;48.048;-1.928;2023-10-08T09:18:20;7.93;;;4.18;;
45049;SDS011;61798;48.048;-1.928;2023-10-08T09:20:27;8.02;;;4.05;;
45049;SDS011;61798;48.048;-1.928;2023-10-08T09:22:33;7.25;;;3.92;;
45049;SDS011;61798;48.048;-1.928;2023-10-08T09:24:41;8.90;;;3.53;;
45049;SDS011;61798;48.048;-1.928;2023-10-08T09:26:48;8.68;;;3.42;;
45049;SDS011;61798;48.048;-1.928;2023-10-08T09:28:55;8.98;;;4.53;;
45049;SDS011;61798;48.048;-1.928;2023-10-08T09:31:00;8.38;;;3.90;;
45049;SDS011;61798;48.048;-1.928;2023-10-08T09:33:09;10.52;;;4.28;;
45049;SDS011;61798;48.048;-1.928;2023-10-08T09:35:22;6.78;;;3.60;;
45049;SDS011;61798;48.048;-1.928;2023-10-08T09:37:30;6.97;;;3.90;;
45049;SDS011;61798;48.048;-1.928;2023-10-08T09:39:35;6.80;;;3.63;;
45049;SDS011;61798;48.048;-1.928;2023-10-08T09:41:43;6.90;;;3.45;;
45049;SDS011;61798;48.048;-1.928;2023-10-08T09:43:50;8.27;;;3.90;;
45049;SDS011;61798;48.048;-1.928;2023-10-08T09:46:04;7.15;;;3.50;;
45049;SDS011;61798;48.048;-1.928;2023-10-08T09:48:20;7.00;;;3.60;;
45049;SDS011;61798;48.048;-1.928;2023-10-08T09:50:32;8.82;;;3.47;;
45049;SDS011;61798;48.048;-1.928;2023-10-08T09:55:21;4.82;;;3.17;;
45049;SDS011;61798;48.048;-1.928;2023-10-08T09:57:28;6.18;;;3.30;;
45049;SDS011;61798;48.048;-1.928;2023-10-08T09:59:34;6.30;;;3.80;;
45049;SDS011;61798;48.048;-1.928;2023-10-08T10:01:41;7.22;;;3.58;;
45049;SDS011;61798;48.048;-1.928;2023-10-08T10:03:49;7.45;;;3.47;;
45049;SDS011;61798;48.048;-1.928;2023-10-08T10:05:55;6.93;;;3.85;;
45049;SDS011;61798;48.048;-1.928;2023-10-08T10:08:05;6.03;;;3.05;;
45049;SDS011;61798;48.048;-1.928;2023-10-08T10:10:31;11.73;;;4.15;;
45049;SDS011;61798;48.048;-1.928;2023-10-08T10:12:40;5.25;;;3.10;;
45049;SDS011;61798;48.048;-1.928;2023-10-08T10:14:48;9.10;;;3.00;;
45049;SDS011;61798;48.048;-1.928;2023-10-08T10:17:42;7.70;;;3.45;;
45049;SDS011;61798;48.048;-1.928;2023-10-08T10:19:33;6.15;;;3.22;;
45049;SDS011;61798;48.048;-1.928;2023-10-08T10:21:41;8.88;;;3.75;;
45049;SDS011;61798;48.048;-1.928;2023-10-08T10:23:47;5.57;;;3.25;;
45049;SDS011;61798;48.048;-1.928;2023-10-08T10:25:57;12.05;;;5.65;;
45049;SDS011;61798;48.048;-1.928;2023-10-08T10:30:13;9.95;;;4.80;;
45049;SDS011;61798;48.048;-1.928;2023-10-08T10:32:24;10.07;;;5.05;;
45049;SDS011;61798;48.048;-1.928;2023-10-08T10:34:30;5.88;;;3.28;;
45049;SDS011;61798;48.048;-1.928;2023-10-08T10:36:40;6.40;;;3.03;;
45049;SDS011;61798;48.048;-1.928;2023-10-08T10:38:47;12.07;;;3.00;;
45049;SDS011;61798;48.048;-1.928;2023-10-08T10:40:55;5.60;;;2.70;;
45049;SDS011;61798;48.048;-1.928;2023-10-08T10:43:04;7.40;;;3.47;;
45049;SDS011;61798;48.048;-1.928;2023-10-08T10:45:13;5.40;;;3.28;;
45049;SDS011;61798;48.048;-1.928;2023-10-08T10:47:44;7.30;;;3.70;;
45049;SDS011;61798;48.048;-1.928;2023-10-08T10:49:51;6.63;;;3.13;;
45049;SDS011;61798;48.048;-1.928;2023-10-08T10:51:58;4.38;;;2.65;;
45049;SDS011;61798;48.048;-1.928;2023-10-08T10:54:05;4.60;;;2.80;;
45049;SDS011;61798;48.048;-1.928;2023-10-08T10:56:15;5.53;;;2.60;;
45049;SDS011;61798;48.048;-1.928;2023-10-08T10:58:35;8.80;;;3.17;;
45049;SDS011;61798;48.048;-1.928;2023-10-08T11:00:44;5.65;;;3.05;;
45049;SDS011;61798;48.048;-1.928;2023-10-08T11:02:50;5.20;;;2.15;;
45049;SDS011;61798;48.048;-1.928;2023-10-08T11:04:57;6.18;;;2.30;;
45049;SDS011;61798;48.048;-1.928;2023-10-08T11:07:14;5.93;;;3.20;;
45049;SDS011;61798;48.048;-1.928;2023-10-08T11:09:26;5.35;;;2.65;;
45049;SDS011;61798;48.048;-1.928;2023-10-08T11:11:43;4.65;;;2.60;;
45049;SDS011;61798;48.048;-1.928;2023-10-08T11:13:49;5.20;;;2.65;;
45049;SDS011;61798;48.048;-1.928;2023-10-08T11:16:02;4.70;;;2.70;;
45049;SDS011;61798;48.048;-1.928;2023-10-08T11:18:09;5.25;;;2.40;;
45049;SDS011;61798;48.048;-1.928;2023-10-08T11:20:28;5.03;;;2.65;;
45049;SDS011;61798;48.048;-1.928;2023-10-08T11:22:42;6.38;;;2.92;;
45049;SDS011;61798;48.048;-1.928;2023-10-08T11:24:50;7.30;;;2.67;;
45049;SDS011;61798;48.048;-1.928;2023-10-08T11:27:02;6.60;;;2.75;;
45049;SDS011;61798;48.048;-1.928;2023-10-08T11:29:22;6.93;;;2.70;;
45049;SDS011;61798;48.048;-1.928;2023-10-08T11:31:30;6.05;;;2.75;;
45049;SDS011;61798;48.048;-1.928;2023-10-08T11:33:40;5.43;;;2.60;;
45049;SDS011;61798;48.048;-1.928;2023-10-08T11:36:03;5.50;;;3.03;;
45049;SDS011;61798;48.048;-1.928;2023-10-08T11:38:23;3.40;;;2.67;;
45049;SDS011;61798;48.048;-1.928;2023-10-08T11:40:29;5.82;;;2.60;;
45049;SDS011;61798;48.048;-1.928;2023-10-08T11:42:52;6.53;;;2.55;;
45049;SDS011;61798;48.048;-1.928;2023-10-08T11:44:57;5.70;;;2.25;;
45049;SDS011;61798;48.048;-1.928;2023-10-08T11:47:23;8.02;;;3.60;;
45049;SDS011;61798;48.048;-1.928;2023-10-08T11:49:31;5.88;;;3.47;;
45049;SDS011;61798;48.048;-1.928;2023-10-08T11:51:41;5.13;;;2.38;;
45049;SDS011;61798;48.048;-1.928;2023-10-08T11:53:47;5.13;;;1.95;;
45049;SDS011;61798;48.048;-1.928;2023-10-08T11:55:53;7.38;;;4.15;;
45049;SDS011;61798;48.048;-1.928;2023-10-08T11:58:02;5.65;;;2.30;;
45049;SDS011;61798;48.048;-1.928;2023-10-08T12:00:22;7.53;;;3.58;;
45049;SDS011;61798;48.048;-1.928;2023-10-08T12:02:30;3.97;;;2.30;;
45049;SDS011;61798;48.048;-1.928;2023-10-08T12:04:37;5.00;;;2.28;;
45049;SDS011;61798;48.048;-1.928;2023-10-08T12:06:44;5.47;;;2.70;;
45049;SDS011;61798;48.048;-1.928;2023-10-08T12:08:52;4.75;;;2.50;;
45049;SDS011;61798;48.048;-1.928;2023-10-08T12:10:59;6.10;;;2.38;;
45049;SDS011;61798;48.048;-1.928;2023-10-08T12:13:05;4.65;;;2.55;;
45049;SDS011;61798;48.048;-1.928;2023-10-08T12:15:11;4.60;;;2.47;;
45049;SDS011;61798;48.048;-1.928;2023-10-08T12:17:24;5.75;;;2.35;;
45049;SDS011;61798;48.048;-1.928;2023-10-08T12:19:42;5.15;;;2.80;;
45049;SDS011;61798;48.048;-1.928;2023-10-08T12:21:48;4.75;;;2.55;;
45049;SDS011;61798;48.048;-1.928;2023-10-08T12:23:55;3.60;;;2.17;;
45049;SDS011;61798;48.048;-1.928;2023-10-08T12:26:02;4.78;;;2.67;;
45049;SDS011;61798;48.048;-1.928;2023-10-08T12:28:08;3.67;;;2.53;;
45049;SDS011;61798;48.048;-1.928;2023-10-08T12:30:17;6.03;;;2.83;;
45049;SDS011;61798;48.048;-1.928;2023-10-08T12:32:22;7.88;;;2.20;;
45049;SDS011;61798;48.048;-1.928;2023-10-08T12:34:34;4.28;;;2.38;;
45049;SDS011;61798;48.048;-1.928;2023-10-08T12:36:44;3.67;;;2.22;;
45049;SDS011;61798;48.048;-1.928;2023-10-08T12:38:51;5.65;;;2.05;;
45049;SDS011;61798;48.048;-1.928;2023-10-08T12:41:03;3.22;;;1.90;;
45049;SDS011;61798;48.048;-1.928;2023-10-08T12:43:21;3.75;;;2.08;;
45049;SDS011;61798;48.048;-1.928;2023-10-08T12:45:27;3.55;;;1.80;;
45049;SDS011;61798;48.048;-1.928;2023-10-08T12:47:33;6.38;;;2.20;;
45049;SDS011;61798;48.048;-1.928;2023-10-08T12:49:41;3.47;;;2.03;;
45049;SDS011;61798;48.048;-1.928;2023-10-08T12:51:50;3.90;;;2.25;;
45049;SDS011;61798;48.048;-1.928;2023-10-08T12:53:58;3.97;;;2.05;;
45049;SDS011;61798;48.048;-1.928;2023-10-08T12:56:12;5.57;;;2.40;;
45049;SDS011;61798;48.048;-1.928;2023-10-08T12:58:21;3.85;;;2.03;;
45049;SDS011;61798;48.048;-1.928;2023-10-08T13:00:31;2.92;;;1.90;;
45049;SDS011;61798;48.048;-1.928;2023-10-08T13:02:37;5.07;;;2.92;;
45049;SDS011;61798;48.048;-1.928;2023-10-08T13:04:47;6.25;;;1.88;;
45049;SDS011;61798;48.048;-1.928;2023-10-08T13:06:54;4.70;;;1.95;;
45049;SDS011;61798;48.048;-1.928;2023-10-08T13:09:03;5.63;;;2.25;;